createdAt,value
2024-01-15T04:54:01.999Z,99278.69
2024-01-15T04:57:05.070Z,99276.00
2024-01-15T05:00:08.265Z,99281.66
2024-01-15T05:03:11.013Z,99262.16
2024-01-15T05:06:13.724Z,99270.69
2024-01-15T05:09:16.344Z,99270.09
2024-01-15T05:12:18.941Z,99269.56
2024-01-15T05:15:21.523Z,99268.66
2024-01-15T05:18:24.200Z,99274.94
2024-01-15T05:21:26.859Z,99274.84
2024-01-15T05:24:29.390Z,99285.53
2024-01-15T05:27:31.882Z,99278.34
2024-01-15T05:30:34.532Z,99273.50
2024-01-15T05:33:37.206Z,99268.88
2024-01-15T05:36:40.186Z,99262.34
2024-01-15T05:39:42.695Z,99255.53
2024-01-15T05:42:45.220Z,99252.81
2024-01-15T05:45:47.897Z,99255.03
2024-01-15T05:48:50.556Z,99246.13
2024-01-15T05:51:53.227Z,99250.88
2024-01-15T05:54:55.799Z,99252.88
2024-01-15T05:57:58.930Z,99249.78
2024-01-15T06:01:01.662Z,99256.56
2024-01-15T06:04:04.634Z,99251.94
2024-01-15T06:07:07.308Z,99249.81
2024-01-15T06:10:10.390Z,99236.97
2024-01-15T06:13:12.938Z,99229.16
2024-01-15T06:16:17.007Z,99229.91
2024-01-15T06:19:19.600Z,99227.75
2024-01-15T06:22:22.162Z,99218.94
2024-01-15T06:25:24.652Z,99230.50
2024-01-15T06:28:27.179Z,99226.97
2024-01-15T06:31:30.050Z,99224.47
2024-01-15T06:34:32.585Z,99216.97
2024-01-15T06:37:35.170Z,99218.56
2024-01-15T06:40:37.694Z,99229.84
2024-01-15T06:43:40.375Z,99233.88
2024-01-15T06:46:47.761Z,99239.00
2024-01-15T06:49:51.880Z,99230.19
2024-01-15T06:52:54.499Z,99233.66
2024-01-15T06:55:57.168Z,99235.72
2024-01-15T06:59:00.028Z,99239.50
2024-01-15T07:02:02.672Z,99236.88
2024-01-15T07:05:06.446Z,99243.63
2024-01-15T07:08:09.156Z,99250.66
2024-01-15T07:11:11.802Z,99250.84
2024-01-15T07:14:14.436Z,99246.53
2024-01-15T07:17:16.998Z,99250.94
2024-01-15T07:20:20.694Z,99247.66
2024-01-15T07:23:23.212Z,99240.31
2024-01-15T07:26:26.519Z,99240.03
2024-01-15T07:29:30.128Z,99247.16
2024-01-15T07:32:32.958Z,99252.31
2024-01-15T07:35:35.540Z,99256.91
2024-01-15T07:38:38.508Z,99257.94
2024-01-15T07:41:41.064Z,99254.31
2024-01-15T07:44:43.565Z,99257.75
2024-01-15T07:47:50.332Z,99265.34
2024-01-15T07:50:55.759Z,99263.56
2024-01-15T07:53:58.635Z,99268.63
2024-01-15T08:00:34.461Z,99266.75
2024-01-15T08:03:45.654Z,99259.84
2024-01-15T08:07:38.230Z,99264.69
2024-01-15T08:11:34.422Z,99250.22
2024-01-15T08:15:09.261Z,99247.63
2024-01-15T08:18:14.696Z,99237.16
2024-01-15T08:21:17.482Z,99245.09
2024-01-15T08:24:20.216Z,99255.81
2024-01-15T08:27:22.784Z,99255.22
2024-01-15T08:30:29.564Z,99261.72
2024-01-15T08:33:34.871Z,99275.28
2024-01-15T08:36:37.869Z,99276.63
2024-01-15T08:39:40.419Z,99277.91
2024-01-15T08:42:44.691Z,99272.53
2024-01-15T08:46:00.861Z,99281.47
2024-01-15T08:49:07.271Z,99286.69
2024-01-15T08:52:22.356Z,99289.25
2024-01-15T08:55:25.173Z,99293.97
2024-01-15T08:59:03.723Z,99302.75
2024-01-15T09:02:20.578Z,99305.00
2024-01-15T09:05:32.471Z,99294.34
2024-01-15T09:08:35.945Z,99291.31
2024-01-15T09:11:38.605Z,99299.88
2024-01-15T09:14:41.616Z,99306.19
2024-01-15T09:17:45.023Z,99302.34
2024-01-15T09:20:47.568Z,99309.22
2024-01-15T09:23:50.203Z,99316.34
2024-01-15T09:26:52.830Z,99328.44
2024-01-15T09:29:56.335Z,99335.50
2024-01-15T09:32:59.786Z,99345.53
2024-01-15T09:36:07.647Z,99362.47
2024-01-15T09:39:12.354Z,99381.63
2024-01-15T09:42:21.063Z,99379.97
2024-01-15T09:45:27.368Z,99380.06
2024-01-15T09:48:35.197Z,99399.97
2024-01-15T09:51:38.529Z,99405.75
2024-01-15T09:54:43.515Z,99399.50
2024-01-15T09:57:47.794Z,99379.41
2024-01-15T10:00:51.637Z,99394.19
2024-01-15T10:03:56.163Z,99403.00
2024-01-15T10:06:59.292Z,99401.50
2024-01-15T10:10:01.924Z,99408.59
2024-01-15T10:13:05.523Z,99411.59
2024-01-15T10:16:08.025Z,99409.25
2024-01-15T10:19:14.922Z,99420.81
2024-01-15T10:22:19.393Z,99422.19
2024-01-15T10:25:27.034Z,99422.94
2024-01-15T10:28:31.454Z,99416.34
2024-01-15T10:31:34.334Z,99406.13
2024-01-15T10:34:53.875Z,99414.44
2024-01-15T10:37:57.558Z,99409.34
2024-01-15T10:41:00.124Z,99396.69
2024-01-15T10:44:05.076Z,99397.72
2024-01-15T10:47:08.099Z,99392.38
2024-01-15T10:50:11.582Z,99390.00
2024-01-15T10:53:16.707Z,99378.66
2024-01-15T10:56:20.028Z,99376.72
2024-01-15T10:59:28.146Z,99371.88
2024-01-15T11:02:31.281Z,99380.75
2024-01-15T11:05:46.009Z,99387.41
2024-01-15T11:08:54.588Z,99375.56
2024-01-15T11:12:10.193Z,99361.41
2024-01-15T11:15:21.756Z,99354.13
2024-01-15T11:18:24.683Z,99350.78
2024-01-15T11:21:28.856Z,99344.41
2024-01-15T11:24:42.626Z,99344.75
2024-01-15T11:27:49.146Z,99353.38
2024-01-15T11:31:14.446Z,99340.03
2024-01-15T11:34:23.262Z,99348.06
2024-01-15T11:37:55.754Z,99343.63
2024-01-15T11:41:03.395Z,99335.78
2024-01-15T11:44:06.544Z,99331.38
2024-01-15T11:47:16.719Z,99329.75
2024-01-15T11:50:19.782Z,99328.00
2024-01-15T11:53:30.052Z,99330.97
2024-01-15T11:56:32.743Z,99321.25
2024-01-15T11:59:35.809Z,99325.47
2024-01-15T12:02:40.204Z,99323.69
2024-01-15T12:05:45.726Z,99318.88
2024-01-15T12:08:48.345Z,99315.81
2024-01-15T12:12:01.371Z,99298.59
2024-01-15T12:15:04.845Z,99301.00
2024-01-15T12:18:09.319Z,99299.94
2024-01-15T12:21:11.972Z,99299.25
2024-01-15T12:24:14.634Z,99291.53
2024-01-15T12:27:24.692Z,99289.41
2024-01-15T12:30:35.380Z,99288.13
2024-01-15T12:33:38.325Z,99294.53
2024-01-15T12:36:41.998Z,99300.88
2024-01-15T12:39:45.344Z,99296.88
2024-01-15T12:42:48.143Z,99286.75
2024-01-15T12:45:52.071Z,99285.72
2024-01-15T12:48:54.714Z,99276.50
2024-01-15T12:52:34.746Z,99285.97
2024-01-15T12:55:37.956Z,99269.06
2024-01-15T12:58:40.863Z,99255.19
2024-01-15T13:10:06.573Z,99231.34
2024-01-15T13:13:57.060Z,99234.31
2024-01-15T13:17:04.143Z,99220.84
2024-01-15T13:20:11.062Z,99234.53
2024-01-15T13:23:14.020Z,99230.41
2024-01-15T13:26:16.621Z,99220.88
2024-01-15T13:29:19.405Z,99218.16
2024-01-15T13:32:29.189Z,99221.47
2024-01-15T13:35:32.209Z,99224.50
2024-01-15T13:38:37.476Z,99210.50
2024-01-15T13:41:40.094Z,99213.59
2024-01-15T13:44:43.829Z,99225.25
2024-01-15T13:47:46.482Z,99219.13
2024-01-15T13:50:49.071Z,99222.66
2024-01-15T13:53:52.069Z,99219.34
2024-01-15T13:56:54.635Z,99220.25
2024-01-15T13:59:57.198Z,99225.03
2024-01-15T14:02:59.779Z,99227.78
2024-01-15T14:06:09.808Z,99231.03
2024-01-15T14:09:15.584Z,99238.69
2024-01-15T14:12:18.194Z,99232.25
2024-01-15T14:15:22.832Z,99226.44
2024-01-15T14:18:25.539Z,99225.69
2024-01-15T14:21:28.185Z,99229.56
2024-01-15T14:24:30.786Z,99228.81
2024-01-15T14:27:34.057Z,99226.72
2024-01-15T14:30:36.807Z,99213.13
2024-01-15T14:33:40.808Z,99211.25
2024-01-15T14:36:44.037Z,99213.59
2024-01-15T14:39:47.156Z,99209.47
2024-01-15T14:42:50.157Z,99214.72
2024-01-15T14:45:52.778Z,99214.25
2024-01-15T14:48:55.666Z,99211.81
2024-01-15T14:51:58.857Z,99218.13
2024-01-15T14:55:02.285Z,99234.22
2024-01-15T14:58:05.826Z,99227.31
2024-01-15T15:01:08.572Z,99231.44
2024-01-15T15:04:11.857Z,99239.69
2024-01-15T15:07:14.571Z,99228.34
2024-01-15T15:10:17.302Z,99233.22
2024-01-15T15:13:29.500Z,99231.59
2024-01-15T15:16:36.779Z,99238.47
2024-01-15T15:19:40.958Z,99242.88
2024-01-15T15:22:44.112Z,99244.38
2024-01-15T15:25:46.716Z,99251.41
2024-01-15T15:28:50.182Z,99236.41
2024-01-15T15:31:53.121Z,99230.41
2024-01-15T15:34:56.156Z,99236.44
2024-01-15T15:37:58.758Z,99232.53
2024-01-15T15:41:02.102Z,99228.13
2024-01-15T15:44:05.167Z,99227.47
2024-01-15T15:47:07.981Z,99228.94
2024-01-15T15:50:10.992Z,99236.00
2024-01-15T15:53:14.038Z,99253.78
2024-01-15T15:56:16.793Z,99259.81
2024-01-15T15:59:19.910Z,99252.03
2024-01-15T16:02:22.577Z,99258.53
2024-01-15T16:05:31.361Z,99259.34
2024-01-15T16:08:40.413Z,99248.03
2024-01-15T16:11:43.019Z,99267.38
2024-01-15T16:14:45.599Z,99267.25
2024-01-15T16:23:17.128Z,99268.41
2024-01-15T16:23:35.527Z,99262.69
2024-01-15T16:24:42.500Z,99283.22
2024-01-15T16:27:53.377Z,99283.91
2024-01-15T16:31:02.188Z,99300.97
2024-01-15T16:34:09.759Z,99286.97
2024-01-15T16:37:14.247Z,99281.06
2024-01-15T16:40:16.961Z,99307.03
2024-01-15T16:43:19.679Z,99322.84
2024-01-15T16:46:23.022Z,99328.28
2024-01-15T16:49:25.653Z,99333.88
2024-01-15T16:52:28.233Z,99351.34
2024-01-15T16:55:31.025Z,99373.78
2024-01-15T16:58:33.836Z,99370.03
2024-01-15T17:01:36.631Z,99356.69
2024-01-15T17:04:39.687Z,99337.31
2024-01-15T17:07:42.622Z,99344.38
2024-01-15T17:10:45.549Z,99346.22
2024-01-15T17:13:48.379Z,99364.38
2024-01-15T17:16:51.221Z,99404.09
2024-01-15T17:19:55.080Z,99391.56
2024-01-15T17:22:59.228Z,99382.09
2024-01-15T17:26:03.311Z,99385.88
2024-01-15T17:29:06.278Z,99392.38
2024-01-15T17:32:09.121Z,99386.81
2024-01-15T17:35:12.053Z,99381.56
2024-01-15T17:38:15.232Z,99387.75
2024-01-15T17:41:18.167Z,99396.78
2024-01-15T17:44:20.730Z,99390.94
2024-01-15T17:47:23.588Z,99395.50
2024-01-15T17:50:26.148Z,99392.47
2024-01-15T17:53:29.032Z,99388.28
2024-01-15T17:56:32.206Z,99382.06
2024-01-15T17:59:35.385Z,99378.47
2024-01-15T18:02:39.692Z,99403.16
2024-01-15T18:05:42.537Z,99409.47
2024-01-15T18:08:45.643Z,99415.19
2024-01-15T18:11:48.377Z,99415.31
2024-01-15T18:14:51.116Z,99425.84
2024-01-15T18:17:54.485Z,99429.56
2024-01-15T18:20:57.372Z,99410.94
2024-01-15T18:24:00.189Z,99420.47
2024-01-15T18:27:04.679Z,99447.13
2024-01-15T18:30:07.871Z,99459.94
2024-01-15T18:33:10.688Z,99457.91
2024-01-15T18:36:13.556Z,99454.44
2024-01-15T18:39:17.991Z,99448.16
2024-01-15T18:42:20.813Z,99438.16
2024-01-15T18:45:23.470Z,99438.69
2024-01-15T18:48:26.171Z,99442.19
2024-01-15T18:51:28.900Z,99446.94
2024-01-15T18:54:31.701Z,99443.50
2024-01-15T18:57:34.332Z,99473.53
2024-01-15T19:00:38.091Z,99484.81
2024-01-15T19:03:41.142Z,99477.09
2024-01-15T19:06:45.461Z,99483.09
2024-01-15T19:09:49.393Z,99477.69
2024-01-15T19:12:52.013Z,99478.56
2024-01-15T19:15:55.243Z,99473.59
2024-01-15T19:18:57.941Z,99471.22
2024-01-15T19:22:00.564Z,99464.69
2024-01-15T19:25:03.376Z,99489.75
2024-01-15T19:28:06.998Z,99503.75
2024-01-15T19:31:10.395Z,99491.84
